Time;durP1;ratioP1;P1;durP2;ratioP2;P2;SDS_P1;SDS_P2;PMS_P1;PMS_P2;Temp;Humidity;BMP_temperature;BMP_pressure;BME280_temperature;BME280_humidity;BME280_pressure;Samples;Min_cycle;Max_cycle;Signal;HPM_P1;HPM_P2
2022/12/11 00:01:09;;;;;;;;;;;-2.50;99.90;;;;;;5021427;28;19921;-62
2022/12/11 00:03:34;;;;;;;;;;;-2.50;99.90;;;;;;5023726;28;19963;-62
2022/12/11 00:06:03;;;;;;;;;;;-2.50;99.90;;;;;;5020739;28;19952;-62
2022/12/11 00:08:28;;;;;;;;;;;-2.50;99.90;;;;;;5026284;28;20010;-61
2022/12/11 00:10:54;;;;;;;;;;;-2.50;99.90;;;;;;5026033;28;19912;-62
2022/12/11 00:13:19;;;;;;;;;;;-2.50;99.90;;;;;;5027905;28;20286;-62
2022/12/11 00:15:45;;;;;;;;;;;-2.50;99.90;;;;;;5024282;28;19936;-62
2022/12/11 00:18:11;;;;;;;;;;;-2.40;99.90;;;;;;5028766;28;19920;-60
2022/12/11 00:20:36;;;;;;;;;;;-2.40;99.90;;;;;;5023738;28;19909;-62
2022/12/11 00:23:03;;;;;;;;;;;-2.50;99.90;;;;;;5028839;28;20428;-62
2022/12/11 00:25:29;;;;;;;;;;;-2.50;99.90;;;;;;5026873;28;20327;-62
2022/12/11 00:27:54;;;;;;;;;;;-2.50;99.90;;;;;;5028389;28;19929;-62
2022/12/11 00:30:19;;;;;;;;;;;-2.60;99.90;;;;;;5028029;28;20375;-62
2022/12/11 00:32:45;;;;;;;;;;;-2.60;99.90;;;;;;5026068;28;19914;-62
2022/12/11 00:35:10;;;;;;;;;;;-2.60;99.90;;;;;;5025934;28;19919;-62
2022/12/11 00:37:36;;;;;;;;;;;-2.50;99.90;;;;;;5021883;28;19945;-63
2022/12/11 00:40:02;;;;;;;;;;;-2.50;99.90;;;;;;5018234;28;19975;-62
2022/12/11 00:42:27;;;;;;;;;;;-2.50;99.90;;;;;;5026135;28;19928;-61
2022/12/11 00:44:54;;;;;;;;;;;-2.50;99.90;;;;;;5029069;28;19928;-62
2022/12/11 00:47:20;;;;;;;;;;;-2.50;99.90;;;;;;5029619;28;19948;-62
2022/12/11 00:49:45;;;;;;;;;;;-2.50;99.90;;;;;;5028353;28;19971;-62
2022/12/11 00:52:11;;;;;;;;;;;-2.50;99.90;;;;;;5023599;28;20338;-60
2022/12/11 00:54:36;;;;;;;;;;;-2.50;99.90;;;;;;5028033;28;20306;-62
2022/12/11 00:57:02;;;;;;;;;;;-2.50;99.90;;;;;;5028491;28;20192;-62
2022/12/11 00:59:27;;;;;;;;;;;-2.40;99.90;;;;;;5017936;28;19909;-62
2022/12/11 01:01:53;;;;;;;;;;;-2.40;99.90;;;;;;5029717;28;20005;-62
2022/12/11 01:04:18;;;;;;;;;;;-2.50;99.90;;;;;;5027613;28;19916;-62
2022/12/11 01:06:44;;;;;;;;;;;-2.50;99.90;;;;;;5028690;28;19971;-61
2022/12/11 01:11:53;;;;;;;;;;;-2.40;99.90;;;;;;5028141;28;19917;-62
2022/12/11 01:14:19;;;;;;;;;;;-2.40;99.90;;;;;;5024383;28;19909;-62
2022/12/11 01:16:44;;;;;;;;;;;-2.50;99.90;;;;;;5025252;28;19913;-62
2022/12/11 01:19:10;;;;;;;;;;;-2.50;99.90;;;;;;5023849;28;19909;-62
2022/12/11 01:21:35;;;;;;;;;;;-2.60;99.90;;;;;;5025111;28;19909;-63
2022/12/11 01:24:01;;;;;;;;;;;-2.60;99.90;;;;;;5029315;28;20093;-61
2022/12/11 01:26:26;;;;;;;;;;;-2.60;99.90;;;;;;5022961;28;20282;-62
2022/12/11 01:28:52;;;;;;;;;;;-2.60;99.90;;;;;;5026357;28;19913;-62
2022/12/11 01:31:18;;;;;;;;;;;-2.60;99.90;;;;;;5023373;28;19913;-62
2022/12/11 01:33:44;;;;;;;;;;;-2.60;99.90;;;;;;5028035;28;20311;-62
2022/12/11 01:36:10;;;;;;;;;;;-2.50;99.90;;;;;;5029253;28;19917;-62
2022/12/11 01:38:36;;;;;;;;;;;-2.50;99.90;;;;;;5027377;28;19920;-63
2022/12/11 01:41:02;;;;;;;;;;;-2.50;99.90;;;;;;5029336;28;20066;-62
2022/12/11 01:43:27;;;;;;;;;;;-2.50;99.90;;;;;;5027478;28;20517;-62
2022/12/11 01:45:52;;;;;;;;;;;-2.60;99.90;;;;;;5026181;28;20305;-63
2022/12/11 01:48:28;;;;;;;;;;;-2.50;99.90;;;;;;5022879;28;20305;-62
2022/12/11 01:50:56;;;;;;;;;;;-2.50;99.90;;;;;;5026757;28;19959;-62
2022/12/11 01:53:42;;;;;;;;;;;-2.50;99.90;;;;;;5028515;28;19914;-62
2022/12/11 01:56:07;;;;;;;;;;;-2.50;99.90;;;;;;5023108;28;20382;-61
2022/12/11 01:58:37;;;;;;;;;;;-2.50;99.90;;;;;;5018247;28;19917;-61
2022/12/11 02:01:02;;;;;;;;;;;-2.50;99.90;;;;;;5019999;28;19917;-61
2022/12/11 02:03:28;;;;;;;;;;;-2.50;99.90;;;;;;5021888;28;19978;-61
2022/12/11 02:05:57;;;;;;;;;;;-2.50;99.90;;;;;;5026014;28;19923;-62
2022/12/11 02:08:23;;;;;;;;;;;-2.50;99.90;;;;;;5028125;28;19966;-62
2022/12/11 02:11:07;;;;;;;;;;;-2.40;99.90;;;;;;5029514;28;20015;-62
2022/12/11 02:13:43;;;;;;;;;;;-2.40;99.90;;;;;;5027858;28;19921;-62
2022/12/11 02:16:23;;;;;;;;;;;-2.40;99.90;;;;;;5024142;28;20012;-62
2022/12/11 02:18:54;;;;;;;;;;;-2.50;99.90;;;;;;5025959;28;19968;-61
2022/12/11 02:21:19;;;;;;;;;;;-2.50;99.90;;;;;;5016835;28;19957;-62
2022/12/11 02:24:04;;;;;;;;;;;-2.50;99.90;;;;;;5025941;28;19952;-62
2022/12/11 02:26:33;;;;;;;;;;;-2.50;99.90;;;;;;5022654;28;20287;-60
2022/12/11 02:29:07;;;;;;;;;;;-2.50;99.90;;;;;;5027252;28;19917;-62
2022/12/11 02:31:43;;;;;;;;;;;-2.50;99.90;;;;;;5026075;28;19996;-62
2022/12/11 02:34:12;;;;;;;;;;;-2.50;99.90;;;;;;5025652;28;20375;-62
2022/12/11 02:36:40;;;;;;;;;;;-2.50;99.90;;;;;;5039697;28;19913;-62
2022/12/11 02:39:08;;;;;;;;;;;-2.50;99.90;;;;;;5022855;28;20296;-62
2022/12/11 02:41:34;;;;;;;;;;;-2.60;99.90;;;;;;5028078;28;19943;-61
2022/12/11 02:44:01;;;;;;;;;;;-2.50;99.90;;;;;;5033390;23;19960;-59
2022/12/11 02:46:27;;;;;;;;;;;-2.60;99.90;;;;;;5000876;28;19964;-58
2022/12/11 02:48:53;;;;;;;;;;;-2.70;99.90;;;;;;5000414;28;19957;-57
2022/12/11 02:51:22;;;;;;;;;;;-2.70;99.90;;;;;;4992011;28;19933;-58
2022/12/11 02:53:50;;;;;;;;;;;-2.80;99.90;;;;;;5012449;28;20156;-60
2022/12/11 02:56:19;;;;;;;;;;;-2.80;99.90;;;;;;5012434;28;20375;-58
2022/12/11 02:58:47;;;;;;;;;;;-2.80;99.90;;;;;;5007735;28;19967;-58
2022/12/11 03:01:12;;;;;;;;;;;-2.80;99.90;;;;;;5003968;28;19933;-59
2022/12/11 03:03:38;;;;;;;;;;;-2.80;99.90;;;;;;5005884;28;19914;-56
2022/12/11 03:06:03;;;;;;;;;;;-2.70;99.90;;;;;;5010768;28;19921;-56
2022/12/11 03:08:30;;;;;;;;;;;-2.70;99.90;;;;;;5010671;28;19917;-59
2022/12/11 03:10:55;;;;;;;;;;;-2.70;99.90;;;;;;5011167;28;19920;-59
2022/12/11 03:13:21;;;;;;;;;;;-2.60;99.90;;;;;;5011478;28;21389;-59
2022/12/11 03:15:58;;;;;;;;;;;-2.60;99.90;;;;;;5003622;28;19909;-57
2022/12/11 03:18:29;;;;;;;;;;;-2.60;99.90;;;;;;5003893;28;20387;-58
2022/12/11 03:21:01;;;;;;;;;;;-2.60;99.90;;;;;;5002133;28;19960;-56
2022/12/11 03:23:38;;;;;;;;;;;-2.60;99.90;;;;;;5007449;28;20004;-59
2022/12/11 03:26:04;;;;;;;;;;;-2.60;99.90;;;;;;5003008;28;20014;-59
2022/12/11 03:28:38;;;;;;;;;;;-2.50;99.90;;;;;;5008654;28;20399;-59
2022/12/11 03:31:06;;;;;;;;;;;-2.60;99.90;;;;;;5005275;28;19968;-56
2022/12/11 03:33:35;;;;;;;;;;;-2.60;99.90;;;;;;5008008;28;20008;-58
2022/12/11 03:36:03;;;;;;;;;;;-2.60;99.90;;;;;;5010548;28;19936;-59
2022/12/11 03:38:36;;;;;;;;;;;-2.60;99.90;;;;;;5009897;28;20442;-59
2022/12/11 03:41:02;;;;;;;;;;;-2.60;99.90;;;;;;5007493;28;20065;-59
2022/12/11 03:43:28;;;;;;;;;;;-2.60;99.90;;;;;;5009113;28;19929;-57
2022/12/11 03:45:54;;;;;;;;;;;-2.60;99.90;;;;;;5019148;28;19967;-59
2022/12/11 03:48:20;;;;;;;;;;;-2.60;99.90;;;;;;5029308;28;19952;-57
2022/12/11 03:50:46;;;;;;;;;;;-2.60;99.90;;;;;;5028867;28;20019;-56
2022/12/11 03:53:11;;;;;;;;;;;-2.60;99.90;;;;;;5007245;28;19959;-55
2022/12/11 03:55:38;;;;;;;;;;;-2.60;99.90;;;;;;5008938;28;19960;-59
2022/12/11 03:58:04;;;;;;;;;;;-2.60;99.90;;;;;;5030970;28;20366;-59
2022/12/11 04:00:29;;;;;;;;;;;-2.60;99.90;;;;;;5012684;28;19920;-58
2022/12/11 04:03:13;;;;;;;;;;;-2.60;99.90;;;;;;5026621;28;20426;-58
2022/12/11 04:05:40;;;;;;;;;;;-2.60;99.90;;;;;;5021874;28;19921;-58
2022/12/11 04:08:06;;;;;;;;;;;-2.70;99.90;;;;;;5025510;28;19913;-58
2022/12/11 04:10:31;;;;;;;;;;;-2.60;99.90;;;;;;5019343;28;20224;-57
2022/12/11 04:12:57;;;;;;;;;;;-2.60;99.90;;;;;;5030477;28;19964;-57
2022/12/11 04:15:22;;;;;;;;;;;-2.70;99.90;;;;;;5021437;28;20052;-58
2022/12/11 04:26:04;;;;;;;;;;;-2.70;99.90;;;;;;5024049;28;19924;-60
2022/12/11 04:28:30;;;;;;;;;;;-2.70;99.90;;;;;;5029666;28;20399;-57
2022/12/11 04:30:55;;;;;;;;;;;-2.70;99.90;;;;;;5026344;28;19917;-59
2022/12/11 04:33:20;;;;;;;;;;;-2.60;99.90;;;;;;5030205;28;19917;-59
2022/12/11 04:35:46;;;;;;;;;;;-2.70;99.90;;;;;;5029274;28;20269;-59
2022/12/11 04:38:11;;;;;;;;;;;-2.70;99.90;;;;;;5029775;28;19988;-60
2022/12/11 04:40:37;;;;;;;;;;;-2.70;99.90;;;;;;5021590;28;19917;-59
2022/12/11 04:43:02;;;;;;;;;;;-2.70;99.90;;;;;;5025736;28;19921;-58
2022/12/11 04:45:28;;;;;;;;;;;-2.70;99.90;;;;;;5029663;28;19917;-60
2022/12/11 04:47:53;;;;;;;;;;;-2.70;99.90;;;;;;5023541;28;19913;-58
2022/12/11 04:50:19;;;;;;;;;;;-2.60;99.90;;;;;;5028044;28;20399;-59
2022/12/11 04:52:44;;;;;;;;;;;-2.70;99.90;;;;;;5029595;28;19965;-59
2022/12/11 04:55:10;;;;;;;;;;;-2.60;99.90;;;;;;5023699;28;19913;-59
2022/12/11 04:57:36;;;;;;;;;;;-2.60;99.90;;;;;;5030005;28;20243;-58
2022/12/11 05:00:03;;;;;;;;;;;-2.60;99.90;;;;;;5030045;28;19921;-57
2022/12/11 05:02:29;;;;;;;;;;;-2.60;99.90;;;;;;5026034;28;20299;-61
2022/12/11 05:04:54;;;;;;;;;;;-2.60;99.90;;;;;;5027714;28;19915;-59
2022/12/11 05:07:20;;;;;;;;;;;-2.60;99.90;;;;;;5024331;28;20012;-58
2022/12/11 05:09:45;;;;;;;;;;;-2.60;99.90;;;;;;5022559;28;19963;-57
2022/12/11 05:12:11;;;;;;;;;;;-2.60;99.90;;;;;;5027076;28;20391;-57
2022/12/11 05:14:36;;;;;;;;;;;-2.60;99.90;;;;;;5025649;28;19909;-59
2022/12/11 05:17:01;;;;;;;;;;;-2.60;99.90;;;;;;5028837;28;19909;-59
2022/12/11 05:19:27;;;;;;;;;;;-2.60;99.90;;;;;;5008002;28;20255;-57
2022/12/11 05:21:53;;;;;;;;;;;-2.60;99.90;;;;;;5028095;28;19920;-59
2022/12/11 05:24:18;;;;;;;;;;;-2.60;99.90;;;;;;5026505;28;20000;-59
2022/12/11 05:26:44;;;;;;;;;;;-2.60;99.90;;;;;;5027250;28;20261;-55
2022/12/11 05:29:09;;;;;;;;;;;-2.60;99.90;;;;;;5023956;28;20331;-60
2022/12/11 05:31:35;;;;;;;;;;;-2.60;99.90;;;;;;5026291;28;19992;-56
2022/12/11 05:34:00;;;;;;;;;;;-2.60;99.90;;;;;;5028809;28;20113;-60
2022/12/11 05:36:27;;;;;;;;;;;-2.60;99.90;;;;;;5025763;28;19909;-57
2022/12/11 05:38:53;;;;;;;;;;;-2.70;99.90;;;;;;5029409;28;19940;-56
2022/12/11 05:41:20;;;;;;;;;;;-2.60;99.90;;;;;;5025815;28;20378;-57
2022/12/11 05:43:46;;;;;;;;;;;-2.70;99.90;;;;;;5026794;28;19928;-59
2022/12/11 05:46:15;;;;;;;;;;;-2.70;99.90;;;;;;5029286;28;19913;-58
2022/12/11 05:48:41;;;;;;;;;;;-2.70;99.90;;;;;;5029292;28;20176;-58
2022/12/11 05:51:07;;;;;;;;;;;-2.80;99.90;;;;;;5029449;28;20294;-58
2022/12/11 05:53:33;;;;;;;;;;;-2.80;99.90;;;;;;5028611;28;19921;-60
2022/12/11 05:56:05;;;;;;;;;;;-2.80;99.90;;;;;;5023622;28;20420;-58
2022/12/11 05:58:31;;;;;;;;;;;-2.80;99.90;;;;;;5028549;28;19921;-59
2022/12/11 06:00:57;;;;;;;;;;;-2.90;99.90;;;;;;5018384;28;19913;-59
2022/12/11 06:03:22;;;;;;;;;;;-2.90;99.90;;;;;;5000711;28;20004;-58
2022/12/11 06:05:48;;;;;;;;;;;-3.00;99.90;;;;;;5027772;28;19925;-60
2022/12/11 06:08:13;;;;;;;;;;;-3.10;99.90;;;;;;5018150;28;19957;-58
2022/12/11 06:10:49;;;;;;;;;;;-3.10;99.90;;;;;;5027507;28;19956;-59
2022/12/11 06:13:14;;;;;;;;;;;-3.20;99.90;;;;;;5020975;28;19921;-59
2022/12/11 06:15:40;;;;;;;;;;;-3.20;99.90;;;;;;5026803;28;19983;-55
2022/12/11 06:18:06;;;;;;;;;;;-3.30;99.90;;;;;;5008537;28;19952;-60
2022/12/11 06:20:32;;;;;;;;;;;-3.30;99.90;;;;;;5010867;28;19921;-57
2022/12/11 06:22:58;;;;;;;;;;;-3.40;99.90;;;;;;5002949;28;19913;-56
2022/12/11 06:25:23;;;;;;;;;;;-3.40;99.90;;;;;;5030069;28;19924;-59
2022/12/11 06:27:49;;;;;;;;;;;-3.50;99.90;;;;;;5027381;28;20351;-59
2022/12/11 06:30:15;;;;;;;;;;;-3.60;99.90;;;;;;5010095;28;19952;-58
2022/12/11 06:32:41;;;;;;;;;;;-3.60;99.90;;;;;;5032422;28;20012;-59
2022/12/11 06:35:06;;;;;;;;;;;-3.60;99.90;;;;;;5032182;28;19953;-56
2022/12/11 06:37:33;;;;;;;;;;;-3.60;99.90;;;;;;5031263;28;19966;-56
2022/12/11 06:39:58;;;;;;;;;;;-3.60;99.90;;;;;;5032500;28;19913;-58
2022/12/11 06:42:24;;;;;;;;;;;-3.60;99.90;;;;;;5027666;28;20379;-55
2022/12/11 06:44:49;;;;;;;;;;;-3.70;99.90;;;;;;5027917;28;19917;-57
2022/12/11 06:47:15;;;;;;;;;;;-3.70;99.90;;;;;;5031213;28;20271;-59
2022/12/11 06:49:40;;;;;;;;;;;-3.80;99.90;;;;;;5026642;28;19920;-54
2022/12/11 06:52:06;;;;;;;;;;;-3.90;99.90;;;;;;5030365;28;19909;-58
2022/12/11 06:54:31;;;;;;;;;;;-3.90;99.90;;;;;;5031531;28;19913;-55
2022/12/11 06:56:56;;;;;;;;;;;-4.00;99.90;;;;;;5024345;28;20011;-57
2022/12/11 06:59:22;;;;;;;;;;;-4.00;99.90;;;;;;5030707;28;19967;-58
2022/12/11 07:01:48;;;;;;;;;;;-4.00;99.90;;;;;;5022342;28;20016;-55
2022/12/11 07:04:13;;;;;;;;;;;-4.10;99.90;;;;;;5030499;28;20084;-60
2022/12/11 07:06:38;;;;;;;;;;;-4.10;99.90;;;;;;5032092;28;19968;-58
2022/12/11 07:09:04;;;;;;;;;;;-4.20;99.90;;;;;;5029610;28;19914;-57
2022/12/11 07:11:29;;;;;;;;;;;-4.20;99.90;;;;;;5031744;28;20444;-55
2022/12/11 07:13:57;;;;;;;;;;;-4.30;99.90;;;;;;5028179;28;19922;-54
2022/12/11 07:16:22;;;;;;;;;;;-4.30;99.90;;;;;;5013633;28;19941;-58
2022/12/11 07:18:49;;;;;;;;;;;-4.30;99.90;;;;;;5022336;28;19975;-58
2022/12/11 07:21:15;;;;;;;;;;;-4.30;99.90;;;;;;5029995;28;19913;-58
2022/12/11 07:23:40;;;;;;;;;;;-4.40;99.90;;;;;;5012400;28;20375;-55
2022/12/11 07:26:06;;;;;;;;;;;-4.40;99.90;;;;;;5028310;28;20406;-54
2022/12/11 07:28:33;;;;;;;;;;;-4.30;99.90;;;;;;5023993;28;19991;-58
2022/12/11 07:30:58;;;;;;;;;;;-4.30;99.90;;;;;;5028328;28;19976;-54
2022/12/11 07:33:24;;;;;;;;;;;-4.30;99.90;;;;;;5030475;28;19944;-54
2022/12/11 07:35:49;;;;;;;;;;;-4.30;99.90;;;;;;5029923;28;20294;-54
2022/12/11 07:38:15;;;;;;;;;;;-4.30;99.90;;;;;;5031192;28;20003;-59
2022/12/11 07:40:40;;;;;;;;;;;-4.20;99.90;;;;;;5031314;28;19968;-54
2022/12/11 07:43:05;;;;;;;;;;;-4.20;99.90;;;;;;5031357;28;19932;-55
2022/12/11 07:45:31;;;;;;;;;;;-4.20;99.90;;;;;;5027108;28;19917;-57
2022/12/11 07:47:56;;;;;;;;;;;-4.20;99.90;;;;;;5030154;28;20283;-58
2022/12/11 07:50:22;;;;;;;;;;;-4.20;99.90;;;;;;5031207;28;21331;-56
2022/12/11 07:52:47;;;;;;;;;;;-4.20;99.90;;;;;;5031213;28;19960;-56
2022/12/11 07:55:13;;;;;;;;;;;-4.20;99.90;;;;;;5022786;28;20379;-54
2022/12/11 07:57:38;;;;;;;;;;;-4.20;99.90;;;;;;5031170;28;19913;-54
2022/12/11 08:00:04;;;;;;;;;;;-4.20;99.90;;;;;;5026032;28;19913;-55
2022/12/11 08:02:30;;;;;;;;;;;-4.30;99.90;;;;;;5024695;28;19913;-57
2022/12/11 08:04:55;;;;;;;;;;;-4.20;99.90;;;;;;5029599;28;20398;-55
2022/12/11 08:07:20;;;;;;;;;;;-4.30;99.90;;;;;;5027842;28;19917;-54
2022/12/11 08:09:46;;;;;;;;;;;-4.30;99.90;;;;;;5026635;28;19919;-58
2022/12/11 08:12:12;;;;;;;;;;;-4.30;99.90;;;;;;5025100;28;19914;-58
2022/12/11 08:14:37;;;;;;;;;;;-4.40;99.90;;;;;;5029274;28;19917;-53
2022/12/11 08:17:03;;;;;;;;;;;-4.40;99.90;;;;;;5030060;28;20016;-57
2022/12/11 08:19:28;;;;;;;;;;;-4.40;99.90;;;;;;5029482;28;19966;-58
2022/12/11 08:21:54;;;;;;;;;;;-4.40;99.90;;;;;;5028469;28;19909;-58
2022/12/11 08:24:19;;;;;;;;;;;-4.40;99.90;;;;;;5028446;28;19943;-58
2022/12/11 08:26:45;;;;;;;;;;;-4.40;99.90;;;;;;5028607;28;19924;-56
2022/12/11 08:29:11;;;;;;;;;;;-4.40;99.90;;;;;;5022681;28;19913;-57
2022/12/11 08:31:38;;;;;;;;;;;-4.40;99.90;;;;;;5025645;28;20753;-55
2022/12/11 08:34:03;;;;;;;;;;;-4.40;99.90;;;;;;5030142;28;19913;-57
2022/12/11 08:36:29;;;;;;;;;;;-4.40;99.90;;;;;;5023493;28;19920;-57
2022/12/11 08:38:55;;;;;;;;;;;-4.40;99.90;;;;;;5029449;28;20361;-55
2022/12/11 08:41:22;;;;;;;;;;;-4.40;99.90;;;;;;5005154;28;20113;-54
2022/12/11 08:43:48;;;;;;;;;;;-4.40;99.90;;;;;;5041232;23;20981;-58
2022/12/11 08:46:14;;;;;;;;;;;-4.40;99.90;;;;;;5057704;28;19932;-58
2022/12/11 08:48:40;;;;;;;;;;;-4.30;99.90;;;;;;5052295;28;19924;-59
2022/12/11 08:51:07;;;;;;;;;;;-4.30;99.90;;;;;;5060283;28;19923;-52
2022/12/11 08:53:32;;;;;;;;;;;-4.30;99.90;;;;;;5061622;28;19908;-55
2022/12/11 08:56:01;;;;;;;;;;;-4.30;99.90;;;;;;5061401;28;19935;-57
2022/12/11 08:58:27;;;;;;;;;;;-4.20;99.90;;;;;;5061371;28;19909;-56
2022/12/11 09:00:53;;;;;;;;;;;-4.20;99.90;;;;;;5058366;28;19986;-57
2022/12/11 09:03:18;;;;;;;;;;;-4.10;99.90;;;;;;5061905;28;20092;-56
2022/12/11 09:05:44;;;;;;;;;;;-4.20;99.90;;;;;;5059973;28;19913;-53
2022/12/11 09:08:09;;;;;;;;;;;-4.10;99.90;;;;;;5055298;28;19916;-57
2022/12/11 09:10:35;;;;;;;;;;;-4.10;99.90;;;;;;5052735;28;20351;-54
2022/12/11 09:13:00;;;;;;;;;;;-4.10;99.90;;;;;;5061574;28;20278;-56
2022/12/11 09:15:26;;;;;;;;;;;-4.00;99.90;;;;;;5055134;28;19913;-55
2022/12/11 09:17:51;;;;;;;;;;;-4.00;99.90;;;;;;5059859;28;19908;-59
2022/12/11 09:20:17;;;;;;;;;;;-3.90;99.90;;;;;;5056843;28;20323;-57
2022/12/11 09:22:42;;;;;;;;;;;-3.90;99.90;;;;;;5053529;28;20004;-57
2022/12/11 09:25:08;;;;;;;;;;;-3.90;99.90;;;;;;5058608;28;19919;-57
2022/12/11 09:27:34;;;;;;;;;;;-3.90;99.90;;;;;;5057824;28;19908;-57
2022/12/11 09:29:59;;;;;;;;;;;-3.80;99.90;;;;;;5046993;28;19975;-55
2022/12/11 09:32:25;;;;;;;;;;;-3.80;99.90;;;;;;5057470;28;20279;-57
2022/12/11 09:34:52;;;;;;;;;;;-3.80;99.90;;;;;;5058410;28;19915;-55
2022/12/11 09:37:17;;;;;;;;;;;-3.70;99.90;;;;;;5061422;28;19978;-57
2022/12/11 09:39:43;;;;;;;;;;;-3.60;99.90;;;;;;5059916;28;20390;-57
2022/12/11 09:42:19;;;;;;;;;;;-3.60;99.90;;;;;;5061187;28;19918;-57
2022/12/11 09:44:50;;;;;;;;;;;-3.50;99.90;;;;;;5056041;28;19916;-55
2022/12/11 09:47:37;;;;;;;;;;;-3.30;99.90;;;;;;5055870;28;19917;-56
2022/12/11 09:50:09;;;;;;;;;;;-3.20;99.90;;;;;;5054239;28;19909;-56
2022/12/11 09:52:46;;;;;;;;;;;-3.10;99.90;;;;;;5058580;28;20025;-57
2022/12/11 09:55:15;;;;;;;;;;;-3.10;99.90;;;;;;5062423;28;20010;-56
2022/12/11 09:57:45;;;;;;;;;;;-3.00;99.90;;;;;;5055818;28;19978;-56
2022/12/11 10:00:13;;;;;;;;;;;-2.90;99.90;;;;;;5055947;28;19923;-58
2022/12/11 10:02:47;;;;;;;;;;;-2.90;99.90;;;;;;5062482;28;19924;-58
2022/12/11 10:05:39;;;;;;;;;;;-2.90;99.90;;;;;;5061296;28;19913;-57
2022/12/11 10:08:11;;;;;;;;;;;-2.80;99.90;;;;;;5056765;28;19913;-58
2022/12/11 10:10:41;;;;;;;;;;;-2.70;99.90;;;;;;5065422;28;20287;-57
2022/12/11 10:13:23;;;;;;;;;;;-2.60;99.90;;;;;;5060540;28;19912;-56
2022/12/11 10:15:56;;;;;;;;;;;-2.60;99.90;;;;;;5064309;28;19917;-56
2022/12/11 10:18:23;;;;;;;;;;;-2.60;99.90;;;;;;5050395;28;19912;-55
2022/12/11 10:20:49;;;;;;;;;;;-2.60;99.90;;;;;;5065479;28;20008;-56
2022/12/11 10:23:20;;;;;;;;;;;-2.60;99.90;;;;;;5059356;28;19915;-54
2022/12/11 10:26:01;;;;;;;;;;;-2.60;99.90;;;;;;5065849;28;19920;-54
2022/12/11 10:28:27;;;;;;;;;;;-2.50;99.90;;;;;;5065487;28;19916;-56
2022/12/11 10:31:11;;;;;;;;;;;-2.50;99.90;;;;;;5059722;28;19916;-56
2022/12/11 10:33:39;;;;;;;;;;;-2.50;99.90;;;;;;5060029;28;20002;-57
2022/12/11 10:36:06;;;;;;;;;;;-2.50;99.90;;;;;;5064172;28;19913;-57
2022/12/11 10:38:33;;;;;;;;;;;-2.50;99.90;;;;;;5060338;28;20393;-57
2022/12/11 10:41:10;;;;;;;;;;;-2.40;99.90;;;;;;5065670;28;20434;-56
2022/12/11 10:43:41;;;;;;;;;;;-2.40;99.90;;;;;;5062247;28;20073;-56
2022/12/11 10:46:14;;;;;;;;;;;-2.40;99.90;;;;;;5065335;28;19990;-57
2022/12/11 10:48:59;;;;;;;;;;;-2.40;99.90;;;;;;5060592;28;19909;-58
2022/12/11 10:51:32;;;;;;;;;;;-2.40;99.90;;;;;;5066313;28;19946;-57
2022/12/11 10:54:15;;;;;;;;;;;-2.40;99.90;;;;;;5062803;28;19920;-58
2022/12/11 10:56:44;;;;;;;;;;;-2.30;99.90;;;;;;5066544;28;19952;-57
2022/12/11 10:59:14;;;;;;;;;;;-2.30;99.90;;;;;;5060621;28;20300;-58
2022/12/11 11:01:45;;;;;;;;;;;-2.40;99.90;;;;;;5062925;28;20392;-58
2022/12/11 11:04:17;;;;;;;;;;;-2.30;99.90;;;;;;5052203;28;20363;-58
2022/12/11 11:06:43;;;;;;;;;;;-2.30;99.90;;;;;;5057076;28;19912;-57
2022/12/11 11:09:33;;;;;;;;;;;-2.30;99.90;;;;;;5060413;28;19924;-55
2022/12/11 11:11:58;;;;;;;;;;;-2.30;99.90;;;;;;5038099;28;19909;-56
2022/12/11 11:14:24;;;;;;;;;;;-2.30;99.90;;;;;;5059643;28;19986;-58
2022/12/11 11:16:50;;;;;;;;;;;-2.20;99.90;;;;;;5059856;28;19915;-58
2022/12/11 11:19:17;;;;;;;;;;;-2.20;99.90;;;;;;5065198;28;19998;-58
2022/12/11 11:21:47;;;;;;;;;;;-2.20;99.90;;;;;;5054804;28;19916;-58
2022/12/11 11:24:32;;;;;;;;;;;-2.20;99.90;;;;;;5066975;28;20007;-58
2022/12/11 11:26:57;;;;;;;;;;;-2.30;99.90;;;;;;5050765;28;20021;-55
2022/12/11 11:29:28;;;;;;;;;;;-2.30;99.90;;;;;;5061411;28;20451;-58
2022/12/11 11:31:54;;;;;;;;;;;-2.30;99.90;;;;;;5051116;28;20251;-57
2022/12/11 11:34:21;;;;;;;;;;;-2.20;99.90;;;;;;5043827;28;19961;-57
2022/12/11 11:36:56;;;;;;;;;;;-2.20;99.90;;;;;;5062772;28;19948;-56
2022/12/11 11:39:26;;;;;;;;;;;-2.20;99.90;;;;;;5061731;28;20271;-57
2022/12/11 11:41:59;;;;;;;;;;;-2.20;99.90;;;;;;5058438;28;19909;-56
2022/12/11 11:44:30;;;;;;;;;;;-2.20;99.90;;;;;;5062051;28;19917;-56
2022/12/11 11:47:09;;;;;;;;;;;-2.20;99.90;;;;;;5043424;28;19967;-57
2022/12/11 11:49:43;;;;;;;;;;;-2.20;99.90;;;;;;5064285;28;19912;-58
2022/12/11 11:52:16;;;;;;;;;;;-2.20;99.90;;;;;;5054191;28;20169;-57
2022/12/11 11:54:51;;;;;;;;;;;-2.20;99.90;;;;;;5067411;28;19908;-58
2022/12/11 11:57:36;;;;;;;;;;;-2.20;99.90;;;;;;5054207;28;19917;-57
2022/12/11 12:00:09;;;;;;;;;;;-2.20;99.90;;;;;;5049544;28;19908;-56
2022/12/11 12:02:35;;;;;;;;;;;-2.20;99.90;;;;;;5058830;28;20095;-57
2022/12/11 12:05:02;;;;;;;;;;;-2.20;99.90;;;;;;5062823;28;19909;-58
2022/12/11 12:07:39;;;;;;;;;;;-2.20;99.90;;;;;;5060670;28;19983;-55
2022/12/11 12:10:24;;;;;;;;;;;-2.20;99.90;;;;;;5050265;28;19908;-58
2022/12/11 12:12:56;;;;;;;;;;;-2.20;99.90;;;;;;5046862;28;19970;-55
2022/12/11 12:15:27;;;;;;;;;;;-2.10;99.90;;;;;;5062663;28;19913;-57
2022/12/11 12:17:58;;;;;;;;;;;-2.10;99.90;;;;;;5059894;28;19921;-58
2022/12/11 12:20:31;;;;;;;;;;;-2.10;99.90;;;;;;5062328;28;19913;-57
2022/12/11 12:23:11;;;;;;;;;;;-2.10;99.90;;;;;;5058838;28;19915;-57
2022/12/11 12:25:39;;;;;;;;;;;-2.10;99.90;;;;;;5060499;28;19970;-57
2022/12/11 12:28:05;;;;;;;;;;;-2.10;99.90;;;;;;5063827;28;19909;-56
2022/12/11 12:30:55;;;;;;;;;;;-2.10;99.90;;;;;;5043210;28;23867;-57
2022/12/11 12:33:26;;;;;;;;;;;-2.10;99.90;;;;;;5054594;28;19943;-58
2022/12/11 12:35:56;;;;;;;;;;;-2.10;99.90;;;;;;5059252;28;19913;-57
2022/12/11 12:38:35;;;;;;;;;;;-2.10;99.90;;;;;;5053783;28;20146;-57
2022/12/11 12:41:03;;;;;;;;;;;-2.10;99.90;;;;;;5051950;28;19941;-57
2022/12/11 12:43:28;;;;;;;;;;;-2.10;99.90;;;;;;5052818;28;19916;-57
2022/12/11 12:46:09;;;;;;;;;;;-2.10;99.90;;;;;;5059690;28;20082;-55
2022/12/11 12:48:34;;;;;;;;;;;-2.00;99.90;;;;;;5047260;28;20360;-56
2022/12/11 12:51:00;;;;;;;;;;;-2.00;99.90;;;;;;5056943;28;19924;-57
2022/12/11 12:53:27;;;;;;;;;;;-1.90;99.90;;;;;;5050100;28;19965;-57
2022/12/11 12:55:53;;;;;;;;;;;-1.90;99.90;;;;;;5059331;28;19995;-55
2022/12/11 12:58:34;;;;;;;;;;;-1.80;99.90;;;;;;5048156;28;20007;-58
2022/12/11 13:01:07;;;;;;;;;;;-1.80;99.90;;;;;;5045422;28;20404;-58
2022/12/11 13:03:35;;;;;;;;;;;-1.80;99.90;;;;;;5055096;28;20472;-58
2022/12/11 13:06:00;;;;;;;;;;;-1.70;99.90;;;;;;5060351;28;19916;-57
2022/12/11 13:08:46;;;;;;;;;;;-1.70;99.90;;;;;;5055732;28;19920;-58
2022/12/11 13:11:12;;;;;;;;;;;-1.70;99.90;;;;;;5058653;28;20023;-55
2022/12/11 13:13:39;;;;;;;;;;;-1.70;99.90;;;;;;5063842;28;20453;-56
2022/12/11 13:16:23;;;;;;;;;;;-1.70;99.90;;;;;;5057599;28;19909;-57
2022/12/11 13:18:48;;;;;;;;;;;-1.70;99.90;;;;;;5061181;28;20432;-57
2022/12/11 13:21:23;;;;;;;;;;;-1.70;99.90;;;;;;5058673;28;19909;-57
2022/12/11 13:23:48;;;;;;;;;;;-1.60;99.90;;;;;;5065078;28;19979;-56
2022/12/11 13:26:26;;;;;;;;;;;-1.60;99.90;;;;;;5056042;28;19956;-56
2022/12/11 13:28:51;;;;;;;;;;;-1.60;99.90;;;;;;5057419;28;19920;-56
2022/12/11 13:31:17;;;;;;;;;;;-1.60;99.90;;;;;;5059378;28;19969;-57
2022/12/11 13:33:45;;;;;;;;;;;-1.60;99.90;;;;;;5058537;28;19909;-56
2022/12/11 13:36:10;;;;;;;;;;;-1.60;99.90;;;;;;5057021;28;19951;-57
2022/12/11 13:38:37;;;;;;;;;;;-1.60;99.90;;;;;;5058928;28;19940;-57
2022/12/11 13:41:09;;;;;;;;;;;-1.60;99.90;;;;;;5034670;28;19924;-57
2022/12/11 13:43:35;;;;;;;;;;;-1.60;99.90;;;;;;5045824;28;19924;-55
2022/12/11 13:46:03;;;;;;;;;;;-1.60;99.90;;;;;;5057371;28;19945;-54
2022/12/11 13:48:32;;;;;;;;;;;-1.50;99.90;;;;;;5059836;28;20421;-57
2022/12/11 13:50:58;;;;;;;;;;;-1.60;99.90;;;;;;5048047;28;19913;-55
2022/12/11 13:53:23;;;;;;;;;;;-1.60;99.90;;;;;;5060281;28;19908;-52
2022/12/11 13:55:59;;;;;;;;;;;-1.60;99.90;;;;;;5057968;28;19939;-56
2022/12/11 13:58:25;;;;;;;;;;;-1.50;99.90;;;;;;5060976;28;19909;-53
2022/12/11 14:01:26;;;;;;;;;;;-1.60;99.90;;;;;;5044119;28;19913;-54
2022/12/11 14:03:52;;;;;;;;;;;-1.60;99.90;;;;;;4958074;28;20853;-57
2022/12/11 14:06:17;;;;;;;;;;;-1.60;99.90;;;;;;5041387;28;19955;-56
2022/12/11 14:08:45;;;;;;;;;;;-1.60;99.90;;;;;;5058761;28;19944;-57
2022/12/11 14:11:19;;;;;;;;;;;-1.70;99.90;;;;;;5062350;28;20366;-55
2022/12/11 14:13:44;;;;;;;;;;;-1.60;99.90;;;;;;5058590;28;19908;-55
2022/12/11 14:16:18;;;;;;;;;;;-1.70;99.90;;;;;;5033092;28;20167;-56
2022/12/11 14:18:44;;;;;;;;;;;-1.80;99.90;;;;;;5062643;28;19958;-58
2022/12/11 14:21:16;;;;;;;;;;;-1.80;99.90;;;;;;5057252;28;20006;-57
2022/12/11 14:23:49;;;;;;;;;;;-1.80;99.90;;;;;;5064772;28;19908;-57
2022/12/11 14:26:15;;;;;;;;;;;-1.90;99.90;;;;;;5049941;28;19912;-56
2022/12/11 14:28:41;;;;;;;;;;;-1.90;99.90;;;;;;5065388;28;20283;-57
2022/12/11 14:31:06;;;;;;;;;;;-1.90;99.90;;;;;;5047247;28;19913;-57
2022/12/11 14:33:58;;;;;;;;;;;-1.90;99.90;;;;;;5057765;28;20394;-56